Time;durP1;ratioP1;P1;durP2;ratioP2;P2;SDS_P1;SDS_P2;PMS_P1;PMS_P2;Temp;Humidity;BMP_temperature;BMP_pressure;BME280_temperature;BME280_humidity;BME280_pressure;Samples;Min_cycle;Max_cycle;Signal;HPM_P1;HPM_P2
2022/09/10 04:15:27;;;;;;;1.35;0.73;;;;;;;14.58;100.00;100017.00;5909373;23;20041;-69
2022/09/10 04:17:53;;;;;;;1.55;0.70;;;;;;;14.60;100.00;100017.63;4974445;28;20035;-69
2022/09/10 04:20:23;;;;;;;2.03;1.27;;;;;;;14.61;100.00;100023.81;4972802;28;20045;-69
2022/09/10 04:22:52;;;;;;;1.40;0.95;;;;;;;14.61;100.00;100027.31;4973100;28;20035;-70
2022/09/10 04:25:19;;;;;;;2.28;1.13;;;;;;;14.61;100.00;100031.88;4973012;28;20193;-69
2022/09/10 04:27:45;;;;;;;3.30;1.02;;;;;;;14.63;100.00;100029.78;4972939;28;20160;-69
2022/09/10 04:30:12;;;;;;;2.20;1.00;;;;;;;14.65;100.00;100033.91;4973283;28;20042;-69
2022/09/10 04:32:38;;;;;;;4.43;1.00;;;;;;;14.65;100.00;100028.56;4972706;28;20502;-69
2022/09/10 04:35:05;;;;;;;1.05;0.85;;;;;;;14.66;100.00;100029.38;4973349;28;20037;-69
2022/09/10 04:37:32;;;;;;;2.45;0.93;;;;;;;14.66;100.00;100032.06;4972757;28;20452;-69
2022/09/10 04:39:59;;;;;;;1.00;0.80;;;;;;;14.64;100.00;100028.75;4972735;28;20476;-69
2022/09/10 04:42:24;;;;;;;1.80;0.90;;;;;;;14.64;100.00;100036.81;4972670;28;20041;-70
2022/09/10 04:44:51;;;;;;;2.38;1.05;;;;;;;14.64;100.00;100028.75;4972886;28;20031;-69
2022/09/10 04:47:17;;;;;;;5.20;1.02;;;;;;;14.64;100.00;100028.75;4973294;28;20406;-69
2022/09/10 04:49:43;;;;;;;0.88;0.65;;;;;;;14.67;100.00;100036.41;4974706;28;20113;-69
2022/09/10 04:52:10;;;;;;;1.55;1.00;;;;;;;14.64;100.00;100037.63;4973066;28;20066;-69
2022/09/10 04:54:37;;;;;;;6.57;1.00;;;;;;;14.68;100.00;100039.91;4973106;28;20454;-69
2022/09/10 04:57:06;;;;;;;2.70;1.23;;;;;;;14.69;100.00;100041.56;4972770;28;20043;-69
2022/09/10 04:59:32;;;;;;;1.05;0.90;;;;;;;14.70;100.00;100043.22;4974019;28;20042;-68
2022/09/10 05:01:57;;;;;;;1.08;0.70;;;;;;;14.73;100.00;100045.47;4973907;28;20031;-70
2022/09/10 05:04:24;;;;;;;4.65;1.20;;;;;;;14.72;100.00;100044.63;4972378;28;20019;-68
2022/09/10 05:06:50;;;;;;;2.03;1.20;;;;;;;14.74;100.00;100053.31;4972277;28;20409;-68
2022/09/10 05:09:16;;;;;;;2.60;1.42;;;;;;;14.74;100.00;100052.50;4972261;28;20039;-68
2022/09/10 05:11:43;;;;;;;4.18;1.48;;;;;;;14.73;100.00;100048.16;4973255;28;20035;-70
2022/09/10 05:14:09;;;;;;;1.70;0.98;;;;;;;14.73;100.00;100048.16;4972351;28;20037;-70
2022/09/10 05:16:35;;;;;;;1.40;1.20;;;;;;;14.75;100.00;100052.28;4971944;28;20047;-70
2022/09/10 05:19:01;;;;;;;1.85;1.08;;;;;;;14.76;100.00;100050.44;4972105;28;20043;-70
2022/09/10 05:21:30;;;;;;;;;;;;;;;14.78;100.00;100049.19;4972427;28;20054;-68
2022/09/10 05:23:56;;;;;;;1.50;1.17;;;;;;;14.80;100.00;100051.66;4972375;28;19996;-68
2022/09/10 05:26:23;;;;;;;2.38;1.05;;;;;;;14.79;100.00;100056.19;4971957;28;20042;-69
2022/09/10 05:28:48;;;;;;;1.95;1.05;;;;;;;14.80;100.00;100060.56;4962346;28;20040;-68
2022/09/10 05:31:16;;;;;;;2.08;0.93;;;;;;;14.81;100.00;100059.50;4954468;28;20090;-68
2022/09/10 05:33:42;;;;;;;1.90;1.13;;;;;;;14.79;100.00;100056.19;4953459;28;20044;-68
2022/09/10 05:36:10;;;;;;;1.52;0.98;;;;;;;14.81;100.00;100066.75;4953596;28;20050;-68
2022/09/10 05:38:38;;;;;;;2.88;1.10;;;;;;;14.84;100.00;100072.50;4953432;28;20042;-68
2022/09/10 05:41:05;;;;;;;12.63;6.00;;;;;;;14.84;100.00;100067.13;4952932;29;20051;-68
2022/09/10 05:43:31;;;;;;;3.10;1.50;;;;;;;14.89;100.00;100072.72;4952878;28;20039;-69
2022/09/10 05:45:57;;;;;;;1.98;0.80;;;;;;;14.92;100.00;100063.41;4952761;28;20051;-71
2022/09/10 05:48:23;;;;;;;1.73;1.00;;;;;;;14.90;100.00;100063.63;4960356;28;20042;-69
2022/09/10 05:50:49;;;;;;;2.08;1.30;;;;;;;14.94;100.00;100069.44;4962353;28;20432;-71
2022/09/10 05:53:15;;;;;;;2.72;1.05;;;;;;;14.89;100.00;100055.81;4961360;28;20122;-69
2022/09/10 05:55:42;;;;;;;2.72;1.20;;;;;;;14.95;100.00;100067.56;4963245;28;20054;-69
2022/09/10 05:58:09;;;;;;;4.00;1.10;;;;;;;14.97;100.00;100074.38;4964017;28;20031;-68
2022/09/10 06:00:37;;;;;;;2.95;0.88;;;;;;;14.95;100.00;100070.25;4960878;28;20047;-69
2022/09/10 06:03:04;;;;;;;3.88;2.22;;;;;;;14.97;100.00;100069.00;4964277;28;20045;-69
2022/09/10 06:05:39;;;;;;;6.63;2.25;;;;;;;14.98;100.00;100075.19;4961055;28;20034;-69
2022/09/10 06:08:05;;;;;;;6.82;2.55;;;;;;;14.99;100.00;100066.09;4961997;28;20393;-70
2022/09/10 06:10:33;;;;;;;2.88;1.20;;;;;;;14.96;100.00;100070.03;4962750;28;20057;-70
2022/09/10 06:12:59;;;;;;;4.28;1.92;;;;;;;15.00;100.00;100067.78;4963589;28;20031;-71
2022/09/10 06:15:25;;;;;;;2.88;1.60;;;;;;;15.04;100.00;100074.38;4973266;28;20038;-70
2022/09/10 06:17:54;;;;;;;2.15;1.17;;;;;;;15.06;100.00;100078.50;4972111;28;20058;-70
2022/09/10 06:20:20;;;;;;;2.70;1.10;;;;;;;15.11;100.00;100078.69;4971616;28;20043;-71
2022/09/10 06:22:46;;;;;;;6.00;1.30;;;;;;;15.12;100.00;100082.19;4971802;28;20062;-70
2022/09/10 06:25:11;;;;;;;2.83;1.23;;;;;;;15.15;100.00;100087.16;4972947;28;20040;-70
2022/09/10 06:27:37;;;;;;;3.55;1.48;;;;;;;15.16;100.00;100081.59;4971697;28;20045;-71
2022/09/10 06:30:04;;;;;;;2.00;1.13;;;;;;;15.20;100.00;100084.69;4971641;28;20038;-70
2022/09/10 06:32:30;;;;;;;0.85;0.80;;;;;;;15.21;100.00;100091.72;4971448;28;20393;-70
2022/09/10 06:34:56;;;;;;;3.60;1.30;;;;;;;15.25;100.00;100094.78;4971526;28;20023;-70
2022/09/10 06:37:23;;;;;;;6.55;1.30;;;;;;;15.22;100.00;100088.00;4971527;28;20450;-61
2022/09/10 06:39:49;;;;;;;2.95;1.40;;;;;;;15.30;100.00;100092.31;4971397;28;20053;-62
2022/09/10 06:42:15;;;;;;;1.13;0.50;;;;;;;15.36;100.00;100088.78;4970718;28;20421;-62
2022/09/10 06:45:04;;;;;;;2.65;1.00;;;;;;;15.37;100.00;100101.19;4964266;28;20057;-61
2022/09/10 06:47:46;;;;;;;1.92;0.88;;;;;;;15.40;100.00;100106.16;4971147;28;20043;-62
2022/09/10 06:50:11;;;;;;;2.65;0.80;;;;;;;15.40;100.00;100101.59;4970620;28;20035;-63
2022/09/10 06:52:39;;;;;;;1.92;0.70;;;;;;;15.47;100.00;100106.97;4971063;28;20486;-62
2022/09/10 06:55:07;;;;;;;0.90;0.80;;;;;;;15.47;100.00;100101.59;4971000;28;20035;-62
2022/09/10 06:57:44;;;;;;;1.52;1.17;;;;;;;15.54;100.00;100117.69;4973071;28;20035;-63
2022/09/10 07:00:11;;;;;;;3.22;1.58;;;;;;;15.55;100.00;100104.06;4970340;28;20141;-62
2022/09/10 07:02:37;;;;;;;0.73;0.73;;;;;;;15.58;100.00;100109.00;4974486;28;20429;-64
2022/09/10 07:05:05;;;;;;;1.73;0.55;;;;;;;15.57;100.00;100112.72;4985799;28;20405;-64
2022/09/10 07:07:31;;;;;;;0.98;0.60;;;;;;;15.69;100.00;100115.63;4993890;28;20045;-63
2022/09/10 07:09:57;;;;;;;1.00;0.90;;;;;;;15.74;100.00;100113.97;4993519;28;20039;-64
2022/09/10 07:12:22;;;;;;;2.45;0.70;;;;;;;15.80;100.00;100114.16;4994371;28;20038;-64
2022/09/10 07:14:48;;;;;;;1.25;0.63;;;;;;;15.89;100.00;100124.47;4993558;28;20034;-63
2022/09/10 07:17:14;;;;;;;2.03;0.68;;;;;;;15.94;100.00;100121.16;4993514;28;20373;-63
2022/09/10 07:19:40;;;;;;;2.05;0.50;;;;;;;16.01;100.00;100122.78;4993516;28;20038;-63
2022/09/10 07:22:13;;;;;;;2.75;1.63;;;;;;;16.08;100.00;100113.88;4992649;28;20042;-64
2022/09/10 07:24:39;;;;;;;2.45;0.80;;;;;;;16.15;100.00;100117.34;4993364;28;20030;-63
2022/09/10 07:27:09;;;;;;;0.85;0.60;;;;;;;16.33;100.00;100122.84;5009836;28;20105;-63
2022/09/10 07:29:35;;;;;;;1.55;1.20;;;;;;;16.41;99.63;100130.69;4993196;28;20035;-62
2022/09/10 07:32:03;;;;;;;5.28;0.98;;;;;;;16.59;99.98;100129.97;4973552;28;20039;-63
2022/09/10 07:34:29;;;;;;;1.85;1.02;;;;;;;16.71;99.91;100140.91;4973669;28;20035;-62
2022/09/10 07:36:55;;;;;;;2.83;0.47;;;;;;;16.85;97.97;100137.09;4973852;28;20585;-63
2022/09/10 07:39:22;;;;;;;2.15;1.00;;;;;;;16.96;98.62;100138.28;4973671;28;20053;-63
2022/09/10 07:41:48;;;;;;;0.88;0.80;;;;;;;17.06;96.36;100133.22;4972902;28;20039;-62
2022/09/10 07:44:15;;;;;;;2.15;1.23;;;;;;;17.14;94.74;100132.13;4973497;28;20019;-63
2022/09/10 07:46:43;;;;;;;0.30;0.30;;;;;;;17.18;94.80;100136.03;4973436;28;20108;-64
2022/09/10 07:49:11;;;;;;;3.75;0.90;;;;;;;17.05;95.87;100137.78;4973529;28;20034;-64
2022/09/10 07:51:39;;;;;;;0.82;0.50;;;;;;;17.13;93.38;100146.63;4972591;28;20039;-63
2022/09/10 07:54:05;;;;;;;0.57;0.55;;;;;;;17.01;92.63;100143.81;4973018;28;20445;-61
2022/09/10 07:56:40;;;;;;;11.95;1.42;;;;;;;16.90;94.60;100139.13;4973127;28;20043;-63
2022/09/10 07:59:08;;;;;;;3.67;0.90;;;;;;;16.95;93.76;100139.28;4973406;28;20042;-63
2022/09/10 08:01:43;;;;;;;0.95;0.55;;;;;;;17.06;93.57;100144.81;4973206;28;20041;-62
2022/09/10 08:04:09;;;;;;;0.40;0.40;;;;;;;16.99;93.13;100145.91;4973478;28;20031;-63
2022/09/10 08:06:37;;;;;;;0.98;0.68;;;;;;;17.06;92.33;100149.38;4974675;28;20038;-63
2022/09/10 08:09:06;;;;;;;0.30;0.30;;;;;;;17.07;92.06;100156.38;4973310;28;20159;-63
2022/09/10 08:11:33;;;;;;;3.25;0.80;;;;;;;17.04;92.64;100152.28;4973069;28;20126;-62
2022/09/10 08:13:59;;;;;;;1.77;0.45;;;;;;;17.17;92.39;100153.22;4973425;28;20566;-62
2022/09/10 08:16:27;;;;;;;3.15;0.45;;;;;;;17.23;91.33;100160.44;4973230;28;20062;-63
2022/09/10 08:18:56;;;;;;;0.68;0.55;;;;;;;17.26;92.48;100149.22;4973253;28;20039;-64
2022/09/10 08:21:23;;;;;;;1.00;0.70;;;;;;;17.36;90.40;100152.25;4972945;28;20074;-63
2022/09/10 08:23:54;;;;;;;1.63;0.80;;;;;;;17.45;89.40;100153.63;4973207;28;20039;-62
2022/09/10 08:26:22;;;;;;;1.23;0.60;;;;;;;17.49;87.57;100149.44;4973053;28;20042;-64
2022/09/10 08:28:50;;;;;;;2.85;0.90;;;;;;;17.55;87.76;100153.13;4973010;28;20041;-63
2022/09/10 08:31:16;;;;;;;1.70;0.65;;;;;;;17.58;87.46;100147.28;4973006;28;20050;-63
2022/09/10 08:33:50;;;;;;;1.35;0.73;;;;;;;17.72;87.43;100148.84;4972765;28;20046;-64
2022/09/10 08:36:17;;;;;;;0.68;0.47;;;;;;;17.78;85.92;100155.22;4973102;28;20239;-63
2022/09/10 08:38:43;;;;;;;1.35;0.70;;;;;;;17.94;84.82;100148.44;4973025;28;20039;-64
2022/09/10 08:41:48;;;;;;;1.83;0.75;;;;;;;18.01;83.07;100155.38;4972664;28;20037;-63
2022/09/10 08:44:24;;;;;;;2.22;0.80;;;;;;;18.06;83.28;100160.09;4972757;28;20544;-63
2022/09/10 08:47:20;;;;;;;0.80;0.60;;;;;;;17.98;83.89;100152.31;4972815;28;20062;-64
2022/09/10 08:50:25;;;;;;;3.35;1.10;;;;;;;17.96;84.41;100157.94;4972772;28;20089;-64
2022/09/10 08:53:08;;;;;;;3.40;0.90;;;;;;;17.81;84.70;100168.25;4956843;28;20127;-63
2022/09/10 08:55:36;;;;;;;3.17;1.10;;;;;;;17.69;85.64;100186.16;4972405;28;20089;-63
2022/09/10 08:58:36;;;;;;;1.73;1.13;;;;;;;17.46;86.79;100176.78;4973999;28;20575;-64
2022/09/10 09:01:03;;;;;;;3.78;0.95;;;;;;;17.53;86.69;100182.94;4972218;28;20505;-63
2022/09/10 09:03:37;;;;;;;1.75;0.90;;;;;;;17.63;86.76;100177.09;4972395;28;20043;-64
2022/09/10 09:06:06;;;;;;;3.60;0.80;;;;;;;17.67;85.83;100169.38;4956228;28;20425;-63
2022/09/10 09:08:47;;;;;;;1.55;0.70;;;;;;;17.85;86.03;100174.81;4973599;28;20042;-63
2022/09/10 09:11:31;;;;;;;0.60;0.52;;;;;;;18.07;84.97;100183.31;4971953;28;20039;-64
2022/09/10 09:14:32;;;;;;;4.25;0.90;;;;;;;18.02;84.08;100189.38;4972647;28;20398;-64
2022/09/10 09:17:18;;;;;;;1.55;0.95;;;;;;;18.11;85.93;100171.84;4971838;28;20034;-64
2022/09/10 09:19:56;;;;;;;5.75;1.30;;;;;;;18.36;85.25;100184.44;4971657;28;20086;-64
2022/09/10 09:22:28;;;;;;;;;;;;;;;18.25;82.92;100186.00;4972486;28;20505;-63
2022/09/10 09:24:57;;;;;;;1.75;0.90;;;;;;;18.47;84.19;100188.25;4972030;28;20000;-63
2022/09/10 09:27:28;;;;;;;1.42;0.77;;;;;;;18.62;82.36;100189.50;4971813;28;20166;-64
2022/09/10 09:30:05;;;;;;;3.78;1.00;;;;;;;18.66;82.60;100188.03;4971881;28;20035;-63
2022/09/10 09:32:40;;;;;;;0.90;0.65;;;;;;;18.57;83.24;100183.97;4972185;28;20449;-63
2022/09/10 09:35:24;;;;;;;3.20;1.60;;;;;;;18.62;82.13;100184.09;4972118;28;20066;-63
2022/09/10 09:38:08;;;;;;;2.92;1.05;;;;;;;18.78;83.45;100180.00;4971859;28;20043;-62
2022/09/10 09:40:43;;;;;;;1.00;0.80;;;;;;;18.94;82.32;100173.94;4971510;28;20523;-60
2022/09/10 09:43:27;;;;;;;1.42;0.75;;;;;;;19.00;81.72;100183.00;4971857;28;20129;-58
2022/09/10 09:45:53;;;;;;;1.35;0.73;;;;;;;19.04;79.01;100168.00;4971670;28;20046;-59
2022/09/10 09:48:21;;;;;;;0.88;0.77;;;;;;;18.94;81.85;100183.91;4971726;28;20122;-61
2022/09/10 09:50:55;;;;;;;1.98;0.93;;;;;;;18.86;80.35;100166.19;4971344;28;20105;-60
2022/09/10 09:53:30;;;;;;;3.33;0.85;;;;;;;19.07;80.46;100164.00;4972963;28;20078;-59
2022/09/10 09:56:06;;;;;;;3.03;1.00;;;;;;;19.10;80.50;100167.06;4972964;28;20089;-57
2022/09/10 09:58:36;;;;;;;1.80;0.80;;;;;;;19.20;78.55;100164.63;4972839;28;20046;-59
2022/09/10 10:01:07;;;;;;;1.35;0.75;;;;;;;19.22;78.73;100169.78;4972515;28;20035;-58
2022/09/10 10:04:00;;;;;;;2.45;1.48;;;;;;;19.25;78.60;100161.25;4972749;28;20043;-56
2022/09/10 10:06:30;;;;;;;3.75;1.10;;;;;;;19.19;77.51;100165.69;4972649;28;20038;-59
2022/09/10 10:09:14;;;;;;;3.22;0.88;;;;;;;19.29;77.52;100172.38;4972773;28;20158;-57
2022/09/10 10:11:56;;;;;;;1.90;1.05;;;;;;;19.28;79.25;100166.16;4972270;28;20042;-59
2022/09/10 10:14:35;;;;;;;2.08;0.68;;;;;;;19.09;76.88;100168.13;4972554;28;20054;-62
2022/09/10 10:17:01;;;;;;;3.78;0.93;;;;;;;18.89;78.24;100168.41;4972538;28;20047;-62
2022/09/10 10:19:33;;;;;;;0.68;0.57;;;;;;;18.75;78.98;100175.03;4971319;28;20136;-60
2022/09/10 10:22:31;;;;;;;3.42;0.85;;;;;;;18.70;79.01;100164.94;4972205;28;20050;-59
2022/09/10 10:25:02;;;;;;;3.03;0.82;;;;;;;18.96;78.78;100166.44;4957806;28;20118;-59
2022/09/10 10:27:34;;;;;;;1.48;0.70;;;;;;;19.02;78.65;100158.47;4972427;28;20042;-61
2022/09/10 10:30:04;;;;;;;1.58;0.73;;;;;;;19.05;79.00;100158.84;4972823;28;20593;-63
2022/09/10 10:32:41;;;;;;;3.15;1.27;;;;;;;19.17;80.26;100157.00;4974164;28;20128;-61
2022/09/10 10:35:06;;;;;;;2.47;1.07;;;;;;;19.60;77.23;100153.19;4976682;28;20114;-62
2022/09/10 10:37:55;;;;;;;0.70;0.70;;;;;;;20.30;76.79;100147.72;4976538;28;20557;-63
2022/09/10 10:40:27;;;;;;;3.03;1.00;;;;;;;20.73;73.37;100146.41;4975087;28;20041;-63
2022/09/10 10:43:06;;;;;;;1.95;1.05;;;;;;;20.98;73.48;100147.94;4976368;28;20041;-62
2022/09/10 10:45:37;;;;;;;2.67;0.73;;;;;;;21.65;67.88;100150.72;4976419;28;20096;-64
2022/09/10 10:48:23;;;;;;;1.15;0.60;;;;;;;21.36;69.57;100139.94;4976403;28;20478;-63
2022/09/10 10:51:17;;;;;;;3.75;0.70;;;;;;;20.96;70.67;100140.06;4976105;28;20038;-63
2022/09/10 10:53:45;;;;;;;2.58;0.85;;;;;;;20.74;70.52;100136.41;4969025;28;20070;-62
2022/09/10 10:56:19;;;;;;;4.65;1.15;;;;;;;20.41;70.99;100137.09;4976441;28;20042;-61
2022/09/10 10:59:08;;;;;;;2.08;1.00;;;;;;;20.30;70.58;100131.47;4976680;28;20039;-62
2022/09/10 11:01:41;;;;;;;2.15;0.90;;;;;;;20.13;70.37;100146.81;4975714;28;20034;-63
2022/09/10 11:04:18;;;;;;;1.35;0.93;;;;;;;19.85;70.75;100144.84;4976114;28;20038;-64
2022/09/10 11:06:50;;;;;;;2.05;0.95;;;;;;;19.68;71.58;100136.63;4975795;28;20101;-63
2022/09/10 11:09:23;;;;;;;2.15;1.00;;;;;;;19.61;73.66;100132.41;4975914;28;20051;-63
2022/09/10 11:12:02;;;;;;;2.15;1.20;;;;;;;19.55;72.47;100131.44;4975630;28;20072;-64
2022/09/10 11:14:31;;;;;;;5.32;0.90;;;;;;;19.41;72.73;100135.41;4975596;28;20037;-64
2022/09/10 11:17:09;;;;;;;1.80;0.63;;;;;;;19.55;71.71;100130.59;4975590;28;20042;-64
2022/09/10 11:19:46;;;;;;;4.07;1.20;;;;;;;20.08;71.99;100140.47;4975751;28;20513;-64
2022/09/10 11:22:21;;;;;;;3.92;0.90;;;;;;;20.69;67.88;100137.13;4975312;28;20410;-64
2022/09/10 11:24:56;;;;;;;1.23;1.10;;;;;;;21.39;66.26;100130.53;4970667;28;20039;-63
2022/09/10 11:27:42;;;;;;;2.85;1.23;;;;;;;22.01;63.96;100124.91;4986550;28;20037;-57
2022/09/10 11:30:16;;;;;;;4.00;1.02;;;;;;;22.75;60.83;100127.13;4955714;28;20039;-55
2022/09/10 11:33:00;;;;;;;1.25;0.85;;;;;;;22.04;57.31;100129.84;4956020;28;20046;-58
2022/09/10 11:35:31;;;;;;;1.70;0.77;;;;;;;21.62;57.46;100119.47;4955941;28;20474;-60
2022/09/10 11:38:22;;;;;;;1.20;0.60;;;;;;;21.38;56.55;100108.00;4955921;28;20046;-57
2022/09/10 11:40:59;;;;;;;2.60;0.57;;;;;;;21.43;58.23;100112.69;4955263;28;20050;-55
2022/09/10 11:43:46;;;;;;;0.55;0.43;;;;;;;21.05;59.46;100103.38;4956280;28;20050;-58
2022/09/10 11:46:24;;;;;;;2.88;0.73;;;;;;;21.13;60.17;100113.84;4956027;28;20038;-57
2022/09/10 11:49:02;;;;;;;0.52;0.35;;;;;;;21.17;61.08;100111.44;4955929;28;20035;-56
2022/09/10 11:51:35;;;;;;;0.52;0.45;;;;;;;21.07;61.87;100111.28;4955270;28;20035;-58
2022/09/10 11:54:04;;;;;;;3.33;1.05;;;;;;;21.40;61.01;100116.72;4964933;28;20394;-58
2022/09/10 11:56:45;;;;;;;2.75;0.85;;;;;;;21.39;59.00;100109.66;4974946;28;20053;-58
2022/09/10 11:59:29;;;;;;;3.65;0.90;;;;;;;22.61;58.70;100104.19;4974916;28;20038;-56
2022/09/10 12:02:37;;;;;;;5.25;1.23;;;;;;;22.73;55.12;100113.81;4972889;28;20035;-57
2022/09/10 12:05:30;;;;;;;2.20;1.02;;;;;;;22.65;56.15;100111.56;4951200;28;20043;-59
2022/09/10 12:08:47;;;;;;;2.58;1.23;;;;;;;22.20;56.38;100120.84;4965300;28;20050;-55
2022/09/10 12:11:31;;;;;;;1.45;0.80;;;;;;;21.82;59.13;100121.66;4941111;28;20039;-56
2022/09/10 12:13:57;;;;;;;0.63;0.57;;;;;;;21.28;59.98;100124.13;4967671;28;20066;-59
2022/09/10 12:16:34;;;;;;;2.90;0.80;;;;;;;21.13;60.94;100132.78;4964983;28;20051;-56
2022/09/10 12:19:03;;;;;;;;;;;;;;;20.80;62.18;100119.19;4965234;28;20043;-61
2022/09/10 12:21:36;;;;;;;1.58;0.70;;;;;;;20.49;62.06;100126.75;4962040;28;20004;-57
2022/09/10 12:24:21;;;;;;;0.77;0.50;;;;;;;20.50;62.89;100125.69;4966064;28;20043;-58
2022/09/10 12:26:47;;;;;;;5.78;1.08;;;;;;;20.42;63.00;100120.63;4963054;28;20066;-57
2022/09/10 12:29:26;;;;;;;0.85;0.70;;;;;;;20.29;63.91;100118.22;4964350;28;20165;-59
2022/09/10 12:32:07;;;;;;;1.58;0.80;;;;;;;20.12;65.59;100131.63;4962872;28;20039;-54
2022/09/10 12:34:34;;;;;;;0.55;0.55;;;;;;;20.01;65.92;100125.19;4963824;28;20126;-60
2022/09/10 12:36:59;;;;;;;1.83;0.82;;;;;;;19.95;69.65;100126.16;4963491;28;20105;-58
2022/09/10 12:39:26;;;;;;;5.15;1.33;;;;;;;19.88;70.34;100130.03;4963318;28;20478;-57
2022/09/10 12:41:57;;;;;;;0.77;0.57;;;;;;;19.76;74.47;100139.00;4960750;28;20137;-57
2022/09/10 12:44:35;;;;;;;2.85;0.93;;;;;;;19.40;78.11;100155.38;4962897;28;20043;-57
2022/09/10 12:47:12;;;;;;;1.98;1.00;;;;;;;19.11;79.19;100151.72;4963225;28;20034;-60
2022/09/10 12:49:58;;;;;;;2.67;1.00;;;;;;;19.06;84.30;100147.00;4964712;28;20471;-58
2022/09/10 12:52:50;;;;;;;3.88;1.33;;;;;;;18.88;81.96;100130.88;4964458;28;20121;-57
2022/09/10 12:55:38;;;;;;;1.40;1.00;;;;;;;18.91;80.28;100139.34;4956511;28;20070;-58
2022/09/10 12:58:22;;;;;;;0.93;0.75;;;;;;;18.77;81.38;100140.56;4964539;28;20410;-59
2022/09/10 13:00:53;;;;;;;1.35;0.82;;;;;;;18.73;80.65;100142.09;4963266;28;20090;-57
2022/09/10 13:03:20;;;;;;;1.75;0.65;;;;;;;18.74;79.34;100140.22;4963125;28;20031;-58
2022/09/10 13:05:46;;;;;;;4.03;0.90;;;;;;;19.65;76.27;100128.19;4964346;28;20174;-58
2022/09/10 13:08:14;;;;;;;1.95;0.60;;;;;;;20.29;70.84;100129.84;4963846;28;20502;-58
2022/09/10 13:10:44;;;;;;;0.82;0.50;;;;;;;20.57;71.96;100117.41;4958090;28;20050;-58
2022/09/10 13:13:34;;;;;;;1.33;0.90;;;;;;;21.66;66.32;100119.81;4962211;28;20038;-56
2022/09/10 13:16:02;;;;;;;2.58;0.80;;;;;;;21.44;66.12;100118.94;4964333;28;20486;-57
2022/09/10 13:18:32;;;;;;;1.83;0.75;;;;;;;21.25;66.34;100118.31;4962974;28;20036;-59
2022/09/10 13:20:58;;;;;;;0.85;0.52;;;;;;;21.18;65.89;100113.06;4963156;28;20031;-58
2022/09/10 13:23:51;;;;;;;1.88;0.60;;;;;;;20.84;67.10;100120.34;4964446;28;20518;-58
2022/09/10 13:26:37;;;;;;;1.45;0.63;;;;;;;20.82;66.46;100112.47;4961258;28;20062;-59
2022/09/10 13:29:24;;;;;;;1.80;0.73;;;;;;;20.58;66.98;100108.25;4963601;28;20130;-58
2022/09/10 13:32:00;;;;;;;1.63;0.77;;;;;;;20.11;68.86;100110.25;4963262;28;20027;-51
2022/09/10 13:35:07;;;;;;;0.50;0.50;;;;;;;19.75;70.73;100123.81;4963248;28;20031;-57
2022/09/10 13:37:57;;;;;;;0.50;0.50;;;;;;;19.41;75.40;100124.63;4963594;28;20042;-53
2022/09/10 13:40:38;;;;;;;1.50;0.50;;;;;;;19.07;80.45;100131.63;4963876;28;20047;-53
2022/09/10 13:43:31;;;;;;;1.20;0.90;;;;;;;18.97;82.70;100140.25;4962154;28;20098;-62
2022/09/10 13:46:01;;;;;;;2.40;0.82;;;;;;;18.72;84.74;100142.31;4959698;28;20035;-63
2022/09/10 13:48:33;;;;;;;1.98;0.85;;;;;;;18.69;88.27;100127.41;4954041;28;20043;-64
2022/09/10 13:51:14;;;;;;;1.67;0.90;;;;;;;18.58;90.02;100128.97;4953925;28;20494;-64
2022/09/10 13:53:43;;;;;;;3.38;1.42;;;;;;;18.62;89.94;100132.84;4954149;28;20046;-63
2022/09/10 13:56:27;;;;;;;0.80;0.73;;;;;;;18.34;91.30;100130.75;4954100;28;20114;-63
2022/09/10 13:59:00;;;;;;;1.63;0.88;;;;;;;18.46;90.85;100138.91;4954061;28;20051;-64
2022/09/10 14:01:54;;;;;;;2.08;0.82;;;;;;;18.39;89.73;100132.75;4953549;28;20043;-64
2022/09/10 14:04:36;;;;;;;5.30;0.95;;;;;;;18.48;90.24;100131.38;4953988;29;20074;-64
2022/09/10 14:07:21;;;;;;;1.80;1.15;;;;;;;18.55;91.57;100132.13;4953917;28;20039;-64
2022/09/10 14:09:51;;;;;;;4.03;0.80;;;;;;;18.57;90.25;100124.63;4952592;28;20050;-64
2022/09/10 14:12:19;;;;;;;3.25;1.00;;;;;;;18.78;90.90;100130.59;4953664;28;20090;-63
2022/09/10 14:14:53;;;;;;;1.45;0.93;;;;;;;18.88;91.76;100131.69;4953654;28;20030;-64
2022/09/10 14:17:24;;;;;;;1.77;1.00;;;;;;;19.07;90.76;100131.63;4953654;28;20635;-64
2022/09/10 14:20:00;;;;;;;1.95;0.98;;;;;;;19.14;89.91;100130.44;4953630;28;20142;-63
2022/09/10 14:22:27;;;;;;;1.15;0.73;;;;;;;19.02;91.85;100121.50;4953368;28;20035;-63
2022/09/10 14:24:59;;;;;;;3.72;1.00;;;;;;;18.88;89.73;100126.28;4953679;28;20105;-63
2022/09/10 14:27:36;;;;;;;2.97;1.15;;;;;;;18.77;91.06;100124.38;4954099;28;20406;-62
2022/09/10 14:30:17;;;;;;;2.22;0.90;;;;;;;18.66;91.26;100125.13;4954377;28;20462;-64
2022/09/10 14:32:45;;;;;;;1.63;0.98;;;;;;;18.58;91.54;100126.28;4954097;28;20077;-64
2022/09/10 14:35:39;;;;;;;1.75;0.98;;;;;;;18.50;90.69;100118.50;4953728;28;20414;-63
2022/09/10 14:38:23;;;;;;;2.63;1.30;;;;;;;18.43;91.85;100123.16;4953663;28;20059;-64
2022/09/10 14:40:51;;;;;;;3.08;1.30;;;;;;;18.36;90.87;100125.94;4952856;28;20039;-64
2022/09/10 14:43:28;;;;;;;2.03;0.90;;;;;;;18.40;91.50;100120.94;4953035;28;20118;-63
2022/09/10 14:45:54;;;;;;;3.20;1.08;;;;;;;18.37;88.93;100124.88;4953190;28;20038;-63
2022/09/10 14:48:31;;;;;;;1.70;0.70;;;;;;;18.35;92.34;100116.19;4953064;28;20046;-64
2022/09/10 14:51:14;;;;;;;;;;;;;;;18.37;89.86;100121.34;4953332;28;20051;-53
2022/09/10 14:53:41;;;;;;;1.38;0.82;;;;;;;18.37;90.49;100122.19;4953526;29;19922;-63
2022/09/10 14:56:34;;;;;;;3.00;1.30;;;;;;;18.36;90.12;100128.63;4953479;28;20035;-64
2022/09/10 14:59:18;;;;;;;1.80;1.17;;;;;;;18.30;86.71;100129.53;4953420;28;20305;-63
2022/09/10 15:01:47;;;;;;;2.38;1.10;;;;;;;18.32;87.81;100135.53;4952922;28;20394;-63
2022/09/10 15:04:25;;;;;;;2.95;1.58;;;;;;;18.31;87.91;100138.44;4953238;28;20050;-63
2022/09/10 15:06:51;;;;;;;1.13;0.85;;;;;;;18.19;87.86;100138.38;4953346;28;20032;-63
2022/09/10 15:09:18;;;;;;;3.78;1.50;;;;;;;18.18;87.42;100144.81;4953372;28;20539;-63
2022/09/10 15:11:57;;;;;;;1.40;0.93;;;;;;;18.14;88.00;100144.47;4953070;28;20334;-63
2022/09/10 15:14:23;;;;;;;3.00;1.23;;;;;;;18.12;87.00;100141.16;4953877;28;20394;-64
2022/09/10 15:16:50;;;;;;;2.92;1.25;;;;;;;18.20;88.05;100137.34;4953222;28;20039;-63
2022/09/10 15:19:17;;;;;;;3.50;1.00;;;;;;;18.18;87.40;100142.94;4955869;28;20050;-63
2022/09/10 15:21:42;;;;;;;1.83;1.00;;;;;;;18.29;86.96;100135.97;4956363;28;20047;-63
2022/09/10 15:24:13;;;;;;;3.00;1.13;;;;;;;18.27;86.34;100129.19;4956360;28;20080;-64
2022/09/10 15:26:38;;;;;;;6.15;1.30;;;;;;;18.38;87.56;100131.09;4956962;28;20043;-63
2022/09/10 15:29:04;;;;;;;3.03;1.35;;;;;;;18.41;86.13;100136.88;4956413;28;20038;-63
2022/09/10 15:31:29;;;;;;;3.20;1.00;;;;;;;18.41;83.99;100138.75;4956142;28;20093;-64
2022/09/10 15:33:55;;;;;;;2.70;1.20;;;;;;;18.49;84.04;100138.44;4956086;29;20050;-62
2022/09/10 15:36:21;;;;;;;1.02;0.90;;;;;;;18.44;83.84;100138.28;4955745;28;20090;-63
2022/09/10 15:38:50;;;;;;;1.48;1.13;;;;;;;18.54;83.71;100141.28;4955934;28;20110;-52
2022/09/10 15:41:15;;;;;;;2.97;0.90;;;;;;;18.53;81.66;100136.94;4955733;28;20043;-61
2022/09/10 15:43:42;;;;;;;1.17;1.02;;;;;;;18.48;81.70;100138.66;4955915;28;20053;-61
2022/09/10 15:46:09;;;;;;;3.33;1.73;;;;;;;18.56;81.90;100136.47;4955589;28;20114;-62
2022/09/10 15:48:35;;;;;;;3.00;0.95;;;;;;;18.46;81.43;100141.59;4955738;29;20027;-62
2022/09/10 15:51:06;;;;;;;4.95;1.40;;;;;;;18.38;81.24;100137.31;4955334;29;20403;-62
2022/09/10 15:53:34;;;;;;;3.17;1.33;;;;;;;18.33;81.12;100141.75;4955754;28;20042;-62
2022/09/10 15:56:06;;;;;;;3.35;1.20;;;;;;;18.34;82.20;100140.69;4955559;28;20035;-61
2022/09/10 15:58:31;;;;;;;2.78;1.17;;;;;;;18.31;81.01;100138.44;4955596;28;20134;-62
2022/09/10 16:01:11;;;;;;;3.88;1.05;;;;;;;18.34;80.59;100136.13;4955186;28;20146;-62
2022/09/10 16:03:43;;;;;;;5.32;1.80;;;;;;;18.26;82.28;100139.16;4955433;28;20035;-61
2022/09/10 16:06:08;;;;;;;5.28;2.28;;;;;;;18.27;81.79;100134.56;4955366;28;20071;-61